Карточка аэропорта UOOO

Внимание!
Информация на этой странице в стадии наполнения.
Если вы не увидели какой-то информации, или заметили неточность - пожалуйста сообщите нам!
Спасибо!
Команда RU-STAFF
Название аэропортаАлыкель
Название аэропорта (англ.)Alykel
Превышение574 ft. (175 m.)
Координаты69°19.02', 87°19.02'
Высота перехода1200m
Эшелон переходаQFE>744:FL60;744>QFE>717:FL70;717>QFE:FL80
Коды ответчика5401-5427
Зона ОрВДКрасноярск РПИ (UNKL)
Данные METARUOOO 231200Z 24005MPS 6000 1800NE R19/P2000D -SN BR SCT004 OVC016 M07/M07 Q0991 R19/491040 NOSIG RMK QFE727/0969
Проноз погоды (TAF)UOOO 231039Z 2312/2412 22005G10MPS 3200 -SN DRSN SCT006 OVC012 BECMG 2314/2316 16005G10MPS FM232200 11007G13MPS 6000 BLSN BKN016 BECMG 2408/2410 3200 -SN BLSN OVC012
NOTAMshow/hide NOTAM
AWOS   TABLE

Информация о ВПП

ВПП Длина ВПП (м.) Покрытие Курс ВПП Частота ILS
013430Бетон13109.5
193430Бетон193110.3

Диспетчерские позиции

Позывной Наименование органа УВД Частота
UOOO_GNDНорильск - Руление121.700
UOOO_TWRНорильск - Старт118.300
UOOO_APPНорильск - Круг120.400



Спутниковое изображение